sensor_id;sensor_type;location;lat;lon;timestamp;pressure;altitude;pressure_sealevel;temperature;humidity
13593;BME280;6867;50.998;4.250;2024-02-23T00:01:23;98645.03;;;5.97;nan
13593;BME280;6867;50.998;4.250;2024-02-23T00:03:49;98641.72;;;6.02;nan
13593;BME280;6867;50.998;4.250;2024-02-23T00:06:17;98666.41;;;5.79;nan
13593;BME280;6867;50.998;4.250;2024-02-23T00:08:44;98685.03;;;6.09;nan
13593;BME280;6867;50.998;4.250;2024-02-23T00:11:10;98671.97;;;6.19;nan
13593;BME280;6867;50.998;4.250;2024-02-23T00:13:37;98672.00;;;6.31;nan
13593;BME280;6867;50.998;4.250;2024-02-23T00:16:04;98672.56;;;6.33;nan
13593;BME280;6867;50.998;4.250;2024-02-23T00:18:31;98657.59;;;6.20;nan
13593;BME280;6867;50.998;4.250;2024-02-23T00:20:58;98659.66;;;6.18;nan
13593;BME280;6867;50.998;4.250;2024-02-23T00:23:26;98672.88;;;6.13;nan
13593;BME280;6867;50.998;4.250;2024-02-23T00:25:54;98680.66;;;6.27;nan
13593;BME280;6867;50.998;4.250;2024-02-23T00:28:21;98670.13;;;6.20;nan
13593;BME280;6867;50.998;4.250;2024-02-23T00:30:48;98670.22;;;6.13;nan
13593;BME280;6867;50.998;4.250;2024-02-23T00:33:14;98686.94;;;6.32;nan
13593;BME280;6867;50.998;4.250;2024-02-23T00:35:41;98636.38;;;6.26;nan
13593;BME280;6867;50.998;4.250;2024-02-23T00:38:08;98629.53;;;5.94;nan
13593;BME280;6867;50.998;4.250;2024-02-23T00:40:36;98656.06;;;6.13;nan
13593;BME280;6867;50.998;4.250;2024-02-23T00:43:03;98650.25;;;5.92;nan
13593;BME280;6867;50.998;4.250;2024-02-23T00:45:30;98674.66;;;5.89;nan
13593;BME280;6867;50.998;4.250;2024-02-23T00:47:57;98681.28;;;5.87;nan
13593;BME280;6867;50.998;4.250;2024-02-23T00:50:24;98681.91;;;6.01;nan
13593;BME280;6867;50.998;4.250;2024-02-23T00:52:52;98690.84;;;5.76;nan
13593;BME280;6867;50.998;4.250;2024-02-23T00:55:19;98694.09;;;5.78;nan
13593;BME280;6867;50.998;4.250;2024-02-23T00:57:47;98724.03;;;5.62;nan
13593;BME280;6867;50.998;4.250;2024-02-23T01:00:14;98728.06;;;5.83;nan
13593;BME280;6867;50.998;4.250;2024-02-23T01:02:41;98735.16;;;6.19;nan
13593;BME280;6867;50.998;4.250;2024-02-23T01:05:08;98712.88;;;5.83;nan
13593;BME280;6867;50.998;4.250;2024-02-23T01:07:36;98737.03;;;5.70;nan
13593;BME280;6867;50.998;4.250;2024-02-23T01:10:03;98747.56;;;5.65;nan
13593;BME280;6867;50.998;4.250;2024-02-23T01:12:30;98757.31;;;5.71;nan
13593;BME280;6867;50.998;4.250;2024-02-23T01:14:58;98755.59;;;5.77;nan
13593;BME280;6867;50.998;4.250;2024-02-23T01:17:24;98772.16;;;6.27;nan
13593;BME280;6867;50.998;4.250;2024-02-23T01:19:51;98734.75;;;6.04;nan
13593;BME280;6867;50.998;4.250;2024-02-23T01:22:18;98738.78;;;5.46;nan
13593;BME280;6867;50.998;4.250;2024-02-23T01:24:45;98744.31;;;5.63;nan
13593;BME280;6867;50.998;4.250;2024-02-23T01:27:11;98770.75;;;5.46;nan
13593;BME280;6867;50.998;4.250;2024-02-23T01:29:38;98773.47;;;5.21;nan
13593;BME280;6867;50.998;4.250;2024-02-23T01:32:06;98781.22;;;5.59;nan
13593;BME280;6867;50.998;4.250;2024-02-23T01:34:33;98766.22;;;5.46;nan
13593;BME280;6867;50.998;4.250;2024-02-23T01:37:00;98768.53;;;5.24;nan
13593;BME280;6867;50.998;4.250;2024-02-23T01:39:26;98767.00;;;5.35;nan
13593;BME280;6867;50.998;4.250;2024-02-23T01:41:53;98780.81;;;5.44;nan
13593;BME280;6867;50.998;4.250;2024-02-23T01:44:20;98777.19;;;5.57;nan
13593;BME280;6867;50.998;4.250;2024-02-23T01:46:47;98754.66;;;5.71;nan
13593;BME280;6867;50.998;4.250;2024-02-23T01:49:16;98750.38;;;5.52;nan
13593;BME280;6867;50.998;4.250;2024-02-23T01:51:43;98754.16;;;5.62;nan
13593;BME280;6867;50.998;4.250;2024-02-23T01:54:10;98746.56;;;5.11;nan
13593;BME280;6867;50.998;4.250;2024-02-23T01:56:37;98762.44;;;5.54;nan
13593;BME280;6867;50.998;4.250;2024-02-23T01:59:06;98770.06;;;5.50;nan
13593;BME280;6867;50.998;4.250;2024-02-23T02:01:32;98753.38;;;5.43;nan
13593;BME280;6867;50.998;4.250;2024-02-23T02:03:59;98762.22;;;5.56;nan
13593;BME280;6867;50.998;4.250;2024-02-23T02:06:27;98748.75;;;5.50;nan
13593;BME280;6867;50.998;4.250;2024-02-23T02:08:54;98748.44;;;5.59;nan
13593;BME280;6867;50.998;4.250;2024-02-23T02:11:21;98741.44;;;5.64;nan
13593;BME280;6867;50.998;4.250;2024-02-23T02:13:47;98737.34;;;5.62;nan
13593;BME280;6867;50.998;4.250;2024-02-23T02:16:14;98746.75;;;5.64;nan
13593;BME280;6867;50.998;4.250;2024-02-23T02:18:41;98750.59;;;5.50;nan
13593;BME280;6867;50.998;4.250;2024-02-23T02:21:09;98766.22;;;5.46;nan
13593;BME280;6867;50.998;4.250;2024-02-23T02:23:37;98759.94;;;5.41;nan
13593;BME280;6867;50.998;4.250;2024-02-23T02:26:04;98758.81;;;5.30;nan
13593;BME280;6867;50.998;4.250;2024-02-23T02:28:31;98772.44;;;5.40;nan
13593;BME280;6867;50.998;4.250;2024-02-23T02:30:58;98781.09;;;5.36;nan
13593;BME280;6867;50.998;4.250;2024-02-23T02:33:24;98766.75;;;5.37;nan
13593;BME280;6867;50.998;4.250;2024-02-23T02:35:52;98773.78;;;5.49;nan
13593;BME280;6867;50.998;4.250;2024-02-23T02:38:19;98771.25;;;5.55;nan
13593;BME280;6867;50.998;4.250;2024-02-23T02:40:47;98766.34;;;5.70;nan
13593;BME280;6867;50.998;4.250;2024-02-23T02:43:13;98770.81;;;5.58;nan
13593;BME280;6867;50.998;4.250;2024-02-23T02:45:40;98776.56;;;5.73;nan
13593;BME280;6867;50.998;4.250;2024-02-23T02:48:07;98762.13;;;5.62;nan
13593;BME280;6867;50.998;4.250;2024-02-23T02:50:34;98776.09;;;6.36;nan
13593;BME280;6867;50.998;4.250;2024-02-23T02:53:01;98744.25;;;6.88;nan
13593;BME280;6867;50.998;4.250;2024-02-23T02:55:27;98727.91;;;7.48;nan
13593;BME280;6867;50.998;4.250;2024-02-23T02:57:55;98674.97;;;8.24;nan
13593;BME280;6867;50.998;4.250;2024-02-23T03:00:22;98656.38;;;7.84;nan
13593;BME280;6867;50.998;4.250;2024-02-23T03:02:49;98654.19;;;7.81;nan
13593;BME280;6867;50.998;4.250;2024-02-23T03:05:15;98649.00;;;7.74;nan
13593;BME280;6867;50.998;4.250;2024-02-23T03:07:42;98638.66;;;7.78;nan
13593;BME280;6867;50.998;4.250;2024-02-23T03:10:09;98653.75;;;7.56;nan
13593;BME280;6867;50.998;4.250;2024-02-23T03:12:36;98676.34;;;7.65;nan
13593;BME280;6867;50.998;4.250;2024-02-23T03:15:05;98677.19;;;7.65;nan
13593;BME280;6867;50.998;4.250;2024-02-23T03:17:32;98677.22;;;7.82;nan
13593;BME280;6867;50.998;4.250;2024-02-23T03:19:59;98661.69;;;8.13;nan
13593;BME280;6867;50.998;4.250;2024-02-23T03:22:26;98653.97;;;7.99;nan
13593;BME280;6867;50.998;4.250;2024-02-23T03:24:53;98655.03;;;8.15;nan
13593;BME280;6867;50.998;4.250;2024-02-23T03:27:19;98638.34;;;8.25;nan
13593;BME280;6867;50.998;4.250;2024-02-23T03:29:53;98637.94;;;8.33;nan
13593;BME280;6867;50.998;4.250;2024-02-23T03:32:21;98640.59;;;8.50;nan
13593;BME280;6867;50.998;4.250;2024-02-23T03:34:48;98632.19;;;8.41;nan
13593;BME280;6867;50.998;4.250;2024-02-23T03:37:14;98634.13;;;7.95;nan
13593;BME280;6867;50.998;4.250;2024-02-23T03:39:41;98637.53;;;8.08;nan
13593;BME280;6867;50.998;4.250;2024-02-23T03:42:08;98680.59;;;7.78;nan
13593;BME280;6867;50.998;4.250;2024-02-23T03:44:35;98680.78;;;7.88;nan
13593;BME280;6867;50.998;4.250;2024-02-23T03:47:02;98685.66;;;7.91;nan
13593;BME280;6867;50.998;4.250;2024-02-23T03:49:30;98676.53;;;7.75;nan
13593;BME280;6867;50.998;4.250;2024-02-23T03:51:56;98662.94;;;7.93;nan
13593;BME280;6867;50.998;4.250;2024-02-23T03:54:23;98683.16;;;7.72;nan
13593;BME280;6867;50.998;4.250;2024-02-23T03:56:49;98660.69;;;8.53;nan
13593;BME280;6867;50.998;4.250;2024-02-23T03:59:16;98638.28;;;8.97;nan
13593;BME280;6867;50.998;4.250;2024-02-23T04:01:43;98631.34;;;8.58;nan
13593;BME280;6867;50.998;4.250;2024-02-23T04:04:10;98609.47;;;8.83;nan
13593;BME280;6867;50.998;4.250;2024-02-23T04:06:38;98613.94;;;8.05;nan
13593;BME280;6867;50.998;4.250;2024-02-23T04:09:05;98638.47;;;8.35;nan
13593;BME280;6867;50.998;4.250;2024-02-23T04:11:32;98688.44;;;6.75;nan
13593;BME280;6867;50.998;4.250;2024-02-23T04:13:59;98721.72;;;6.72;nan
13593;BME280;6867;50.998;4.250;2024-02-23T04:16:26;98716.06;;;6.45;nan
13593;BME280;6867;50.998;4.250;2024-02-23T04:18:53;98726.81;;;6.39;nan
13593;BME280;6867;50.998;4.250;2024-02-23T04:21:20;98721.50;;;6.27;nan
13593;BME280;6867;50.998;4.250;2024-02-23T04:23:48;98736.00;;;6.31;nan
13593;BME280;6867;50.998;4.250;2024-02-23T04:26:14;98724.97;;;6.28;nan
13593;BME280;6867;50.998;4.250;2024-02-23T04:28:41;98705.81;;;6.19;nan
13593;BME280;6867;50.998;4.250;2024-02-23T04:31:08;98703.47;;;5.99;nan
13593;BME280;6867;50.998;4.250;2024-02-23T04:33:35;98726.81;;;7.09;nan
13593;BME280;6867;50.998;4.250;2024-02-23T04:36:03;98685.09;;;6.33;nan
13593;BME280;6867;50.998;4.250;2024-02-23T04:38:29;98686.56;;;6.17;nan
13593;BME280;6867;50.998;4.250;2024-02-23T04:40:58;98683.69;;;6.42;nan
13593;BME280;6867;50.998;4.250;2024-02-23T04:43:25;98675.88;;;9.52;nan
13593;BME280;6867;50.998;4.250;2024-02-23T04:45:51;98588.03;;;6.34;nan
13593;BME280;6867;50.998;4.250;2024-02-23T04:48:18;98664.66;;;6.27;nan
13593;BME280;6867;50.998;4.250;2024-02-23T04:50:45;98679.84;;;5.84;nan
13593;BME280;6867;50.998;4.250;2024-02-23T04:53:11;98692.72;;;6.17;nan
13593;BME280;6867;50.998;4.250;2024-02-23T04:55:38;98701.06;;;8.68;nan
13593;BME280;6867;50.998;4.250;2024-02-23T04:58:07;98555.41;;;9.35;nan
13593;BME280;6867;50.998;4.250;2024-02-23T05:00:34;98534.47;;;9.05;nan
13593;BME280;6867;50.998;4.250;2024-02-23T05:03:00;98541.53;;;9.43;nan
13593;BME280;6867;50.998;4.250;2024-02-23T05:05:29;98521.03;;;9.27;nan
13593;BME280;6867;50.998;4.250;2024-02-23T05:07:55;98551.00;;;9.23;nan
13593;BME280;6867;50.998;4.250;2024-02-23T05:10:22;98554.53;;;9.29;nan
13593;BME280;6867;50.998;4.250;2024-02-23T05:12:49;98561.88;;;8.90;nan
13593;BME280;6867;50.998;4.250;2024-02-23T05:15:17;98574.81;;;9.20;nan
13593;BME280;6867;50.998;4.250;2024-02-23T05:17:44;98570.97;;;9.38;nan
13593;BME280;6867;50.998;4.250;2024-02-23T05:20:11;98562.72;;;9.44;nan
13593;BME280;6867;50.998;4.250;2024-02-23T05:22:39;98553.88;;;9.44;nan
13593;BME280;6867;50.998;4.250;2024-02-23T05:25:06;98526.78;;;9.13;nan
13593;BME280;6867;50.998;4.250;2024-02-23T05:27:33;98555.53;;;9.23;nan
13593;BME280;6867;50.998;4.250;2024-02-23T05:30:00;98569.09;;;9.38;nan
13593;BME280;6867;50.998;4.250;2024-02-23T05:32:28;98555.66;;;8.84;nan
13593;BME280;6867;50.998;4.250;2024-02-23T05:34:54;98558.53;;;9.00;nan
13593;BME280;6867;50.998;4.250;2024-02-23T05:37:22;98562.22;;;9.47;nan
13593;BME280;6867;50.998;4.250;2024-02-23T05:39:49;98516.22;;;9.61;nan
13593;BME280;6867;50.998;4.250;2024-02-23T05:42:16;98551.16;;;9.39;nan
13593;BME280;6867;50.998;4.250;2024-02-23T05:44:43;98546.53;;;9.34;nan
13593;BME280;6867;50.998;4.250;2024-02-23T05:47:10;98530.88;;;9.21;nan
13593;BME280;6867;50.998;4.250;2024-02-23T05:49:40;98530.22;;;9.68;nan
13593;BME280;6867;50.998;4.250;2024-02-23T05:52:07;98506.06;;;9.31;nan
13593;BME280;6867;50.998;4.250;2024-02-23T05:54:33;98513.25;;;9.25;nan
13593;BME280;6867;50.998;4.250;2024-02-23T05:57:00;98560.00;;;9.39;nan
13593;BME280;6867;50.998;4.250;2024-02-23T05:59:28;98522.56;;;9.50;nan
13593;BME280;6867;50.998;4.250;2024-02-23T06:01:54;98485.91;;;8.96;nan
13593;BME280;6867;50.998;4.250;2024-02-23T06:04:22;98527.81;;;9.07;nan
13593;BME280;6867;50.998;4.250;2024-02-23T06:06:50;98543.38;;;9.37;nan
13593;BME280;6867;50.998;4.250;2024-02-23T06:09:17;98523.03;;;8.87;nan
13593;BME280;6867;50.998;4.250;2024-02-23T06:11:44;98517.34;;;9.06;nan
13593;BME280;6867;50.998;4.250;2024-02-23T06:14:11;98502.03;;;9.01;nan
13593;BME280;6867;50.998;4.250;2024-02-23T06:16:37;98514.25;;;8.92;nan
13593;BME280;6867;50.998;4.250;2024-02-23T06:19:05;98523.53;;;8.84;nan
13593;BME280;6867;50.998;4.250;2024-02-23T06:21:32;98522.16;;;8.82;nan
13593;BME280;6867;50.998;4.250;2024-02-23T06:24:00;98525.19;;;9.12;nan
13593;BME280;6867;50.998;4.250;2024-02-23T06:26:27;98541.38;;;9.55;nan
13593;BME280;6867;50.998;4.250;2024-02-23T06:28:54;98487.56;;;9.02;nan
13593;BME280;6867;50.998;4.250;2024-02-23T06:31:21;98507.50;;;9.43;nan
13593;BME280;6867;50.998;4.250;2024-02-23T06:33:48;98494.75;;;9.98;nan
13593;BME280;6867;50.998;4.250;2024-02-23T06:36:16;98502.75;;;10.25;nan
13593;BME280;6867;50.998;4.250;2024-02-23T06:38:43;98457.22;;;10.56;nan
13593;BME280;6867;50.998;4.250;2024-02-23T06:41:12;98480.66;;;10.81;nan
13593;BME280;6867;50.998;4.250;2024-02-23T06:43:39;98460.03;;;11.07;nan
13593;BME280;6867;50.998;4.250;2024-02-23T06:46:06;98424.94;;;10.25;nan
13593;BME280;6867;50.998;4.250;2024-02-23T06:48:34;98501.06;;;10.24;nan
13593;BME280;6867;50.998;4.250;2024-02-23T06:51:00;98473.50;;;10.29;nan
13593;BME280;6867;50.998;4.250;2024-02-23T06:53:27;98483.25;;;10.50;nan
13593;BME280;6867;50.998;4.250;2024-02-23T06:55:54;98487.88;;;10.12;nan
13593;BME280;6867;50.998;4.250;2024-02-23T06:58:22;98485.22;;;10.75;nan
13593;BME280;6867;50.998;4.250;2024-02-23T07:00:49;98486.94;;;11.17;nan
13593;BME280;6867;50.998;4.250;2024-02-23T07:03:16;98497.94;;;11.26;nan
13593;BME280;6867;50.998;4.250;2024-02-23T07:05:43;98476.84;;;10.61;nan
13593;BME280;6867;50.998;4.250;2024-02-23T07:08:10;98487.56;;;10.61;nan
13593;BME280;6867;50.998;4.250;2024-02-23T07:10:37;98486.56;;;10.78;nan
13593;BME280;6867;50.998;4.250;2024-02-23T07:13:04;98482.03;;;10.83;nan
13593;BME280;6867;50.998;4.250;2024-02-23T07:15:32;98476.94;;;10.92;nan
13593;BME280;6867;50.998;4.250;2024-02-23T07:18:01;98489.34;;;11.59;nan
13593;BME280;6867;50.998;4.250;2024-02-23T07:20:28;98450.38;;;11.06;nan
13593;BME280;6867;50.998;4.250;2024-02-23T07:22:55;98483.63;;;10.79;nan
13593;BME280;6867;50.998;4.250;2024-02-23T07:25:22;98482.34;;;11.28;nan
13593;BME280;6867;50.998;4.250;2024-02-23T07:27:49;98479.66;;;11.33;nan
13593;BME280;6867;50.998;4.250;2024-02-23T07:30:16;98456.56;;;11.62;nan
13593;BME280;6867;50.998;4.250;2024-02-23T07:32:44;98450.88;;;11.03;nan
13593;BME280;6867;50.998;4.250;2024-02-23T07:35:11;98507.94;;;11.91;nan
13593;BME280;6867;50.998;4.250;2024-02-23T07:37:40;98490.34;;;12.25;nan
13593;BME280;6867;50.998;4.250;2024-02-23T07:40:08;98436.63;;;11.73;nan
13593;BME280;6867;50.998;4.250;2024-02-23T07:42:34;98450.66;;;11.50;nan
13593;BME280;6867;50.998;4.250;2024-02-23T07:45:02;98487.22;;;11.66;nan
13593;BME280;6867;50.998;4.250;2024-02-23T07:47:29;98476.41;;;11.15;nan
13593;BME280;6867;50.998;4.250;2024-02-23T07:49:58;98497.13;;;11.66;nan
13593;BME280;6867;50.998;4.250;2024-02-23T07:52:25;98444.72;;;11.43;nan
13593;BME280;6867;50.998;4.250;2024-02-23T07:54:52;98523.25;;;11.76;nan
13593;BME280;6867;50.998;4.250;2024-02-23T07:57:18;98568.13;;;11.50;nan
13593;BME280;6867;50.998;4.250;2024-02-23T07:59:45;98565.47;;;11.85;nan
13593;BME280;6867;50.998;4.250;2024-02-23T08:02:12;98570.28;;;11.58;nan
13593;BME280;6867;50.998;4.250;2024-02-23T08:04:39;98584.72;;;11.16;nan
13593;BME280;6867;50.998;4.250;2024-02-23T08:07:09;98619.97;;;11.35;nan
13593;BME280;6867;50.998;4.250;2024-02-23T08:09:35;98578.84;;;11.39;nan
13593;BME280;6867;50.998;4.250;2024-02-23T08:12:02;98623.41;;;11.10;nan
13593;BME280;6867;50.998;4.250;2024-02-23T08:14:29;98622.81;;;10.97;nan
13593;BME280;6867;50.998;4.250;2024-02-23T08:16:56;98639.78;;;10.56;nan
13593;BME280;6867;50.998;4.250;2024-02-23T08:19:23;98647.31;;;10.59;nan
13593;BME280;6867;50.998;4.250;2024-02-23T08:21:49;98664.00;;;11.18;nan
13593;BME280;6867;50.998;4.250;2024-02-23T08:24:17;98663.41;;;11.11;nan
13593;BME280;6867;50.998;4.250;2024-02-23T08:26:44;98653.50;;;10.59;nan
13593;BME280;6867;50.998;4.250;2024-02-23T08:29:11;98663.19;;;10.65;nan
13593;BME280;6867;50.998;4.250;2024-02-23T08:31:38;98681.25;;;10.75;nan
13593;BME280;6867;50.998;4.250;2024-02-23T08:34:04;98676.25;;;10.94;nan
13593;BME280;6867;50.998;4.250;2024-02-23T08:36:32;98693.88;;;11.27;nan
13593;BME280;6867;50.998;4.250;2024-02-23T08:38:58;98658.22;;;10.84;nan
13593;BME280;6867;50.998;4.250;2024-02-23T08:41:26;98670.97;;;11.19;nan
13593;BME280;6867;50.998;4.250;2024-02-23T08:43:53;98621.69;;;10.83;nan
13593;BME280;6867;50.998;4.250;2024-02-23T08:46:20;98675.44;;;10.93;nan
13593;BME280;6867;50.998;4.250;2024-02-23T08:48:48;98657.22;;;11.06;nan
13593;BME280;6867;50.998;4.250;2024-02-23T08:51:14;98641.00;;;10.80;nan
13593;BME280;6867;50.998;4.250;2024-02-23T08:53:41;98669.72;;;11.37;nan
13593;BME280;6867;50.998;4.250;2024-02-23T08:56:08;98614.91;;;10.70;nan
13593;BME280;6867;50.998;4.250;2024-02-23T08:58:36;98661.09;;;11.35;nan
13593;BME280;6867;50.998;4.250;2024-02-23T09:01:03;98631.97;;;11.02;nan
13593;BME280;6867;50.998;4.250;2024-02-23T09:03:30;98644.22;;;11.50;nan
13593;BME280;6867;50.998;4.250;2024-02-23T09:05:57;98625.16;;;11.82;nan
13593;BME280;6867;50.998;4.250;2024-02-23T09:08:24;98619.22;;;11.60;nan
13593;BME280;6867;50.998;4.250;2024-02-23T09:10:50;98593.09;;;11.45;nan
13593;BME280;6867;50.998;4.250;2024-02-23T09:13:17;98611.22;;;11.85;nan
13593;BME280;6867;50.998;4.250;2024-02-23T09:15:45;98619.25;;;12.41;nan
13593;BME280;6867;50.998;4.250;2024-02-23T09:18:12;98611.19;;;12.46;nan
13593;BME280;6867;50.998;4.250;2024-02-23T09:20:38;98616.03;;;12.04;nan
13593;BME280;6867;50.998;4.250;2024-02-23T09:23:05;98596.69;;;12.22;nan
13593;BME280;6867;50.998;4.250;2024-02-23T09:25:32;98600.97;;;12.33;nan
13593;BME280;6867;50.998;4.250;2024-02-23T09:27:58;98589.91;;;13.15;nan
13593;BME280;6867;50.998;4.250;2024-02-23T09:30:25;98567.88;;;13.03;nan
13593;BME280;6867;50.998;4.250;2024-02-23T09:32:53;98572.78;;;12.90;nan
13593;BME280;6867;50.998;4.250;2024-02-23T09:35:20;98564.13;;;12.99;nan
13593;BME280;6867;50.998;4.250;2024-02-23T09:37:47;98593.66;;;13.24;nan
13593;BME280;6867;50.998;4.250;2024-02-23T09:40:14;98565.91;;;13.18;nan
13593;BME280;6867;50.998;4.250;2024-02-23T09:42:41;98560.94;;;13.46;nan
13593;BME280;6867;50.998;4.250;2024-02-23T09:45:10;98553.44;;;13.72;nan
13593;BME280;6867;50.998;4.250;2024-02-23T09:47:38;98570.16;;;13.74;nan
13593;BME280;6867;50.998;4.250;2024-02-23T09:50:09;98549.16;;;13.71;nan
13593;BME280;6867;50.998;4.250;2024-02-23T09:52:36;98529.44;;;13.36;nan
13593;BME280;6867;50.998;4.250;2024-02-23T09:55:05;98536.56;;;13.17;nan
13593;BME280;6867;50.998;4.250;2024-02-23T09:57:32;98548.94;;;13.18;nan
13593;BME280;6867;50.998;4.250;2024-02-23T09:59:59;98565.38;;;13.21;nan
13593;BME280;6867;50.998;4.250;2024-02-23T10:02:26;98553.59;;;13.52;nan
13593;BME280;6867;50.998;4.250;2024-02-23T10:04:56;98555.00;;;13.44;nan
13593;BME280;6867;50.998;4.250;2024-02-23T10:07:24;98607.00;;;13.50;nan
13593;BME280;6867;50.998;4.250;2024-02-23T10:09:52;98610.41;;;13.65;nan
13593;BME280;6867;50.998;4.250;2024-02-23T10:12:20;98621.88;;;13.86;nan
13593;BME280;6867;50.998;4.250;2024-02-23T10:14:47;98598.47;;;14.11;nan
13593;BME280;6867;50.998;4.250;2024-02-23T10:17:17;98603.69;;;14.60;nan
13593;BME280;6867;50.998;4.250;2024-02-23T10:19:44;98555.56;;;14.09;nan
13593;BME280;6867;50.998;4.250;2024-02-23T10:22:11;98560.00;;;13.95;nan
13593;BME280;6867;50.998;4.250;2024-02-23T10:24:39;98581.41;;;13.47;nan
13593;BME280;6867;50.998;4.250;2024-02-23T10:27:06;98635.75;;;13.69;nan
13593;BME280;6867;50.998;4.250;2024-02-23T10:29:32;98653.94;;;13.49;nan
13593;BME280;6867;50.998;4.250;2024-02-23T10:32:01;98601.34;;;12.96;nan
13593;BME280;6867;50.998;4.250;2024-02-23T10:34:29;98684.50;;;13.83;nan
13593;BME280;6867;50.998;4.250;2024-02-23T10:36:56;98657.06;;;13.71;nan
13593;BME280;6867;50.998;4.250;2024-02-23T10:39:24;98637.56;;;13.35;nan
13593;BME280;6867;50.998;4.250;2024-02-23T10:41:57;98627.69;;;13.64;nan
13593;BME280;6867;50.998;4.250;2024-02-23T10:44:24;98635.22;;;14.07;nan
13593;BME280;6867;50.998;4.250;2024-02-23T10:46:51;98638.69;;;13.73;nan
13593;BME280;6867;50.998;4.250;2024-02-23T10:49:19;98593.38;;;13.70;nan
13593;BME280;6867;50.998;4.250;2024-02-23T10:51:48;98641.53;;;14.26;nan
13593;BME280;6867;50.998;4.250;2024-02-23T10:54:16;98643.28;;;14.70;nan
13593;BME280;6867;50.998;4.250;2024-02-23T10:56:46;98607.00;;;14.52;nan
13593;BME280;6867;50.998;4.250;2024-02-23T10:59:15;98594.84;;;14.20;nan
13593;BME280;6867;50.998;4.250;2024-02-23T11:01:44;98559.31;;;14.08;nan
13593;BME280;6867;50.998;4.250;2024-02-23T11:04:11;98621.88;;;14.50;nan
13593;BME280;6867;50.998;4.250;2024-02-23T11:06:38;98580.22;;;14.27;nan
13593;BME280;6867;50.998;4.250;2024-02-23T11:09:05;98620.13;;;14.64;nan
13593;BME280;6867;50.998;4.250;2024-02-23T11:11:33;98586.69;;;14.31;nan
13593;BME280;6867;50.998;4.250;2024-02-23T11:14:02;98618.47;;;14.39;nan
13593;BME280;6867;50.998;4.250;2024-02-23T11:16:31;98610.81;;;13.83;nan
13593;BME280;6867;50.998;4.250;2024-02-23T11:19:04;98570.91;;;14.14;nan
13593;BME280;6867;50.998;4.250;2024-02-23T11:21:34;98583.78;;;13.93;nan
13593;BME280;6867;50.998;4.250;2024-02-23T11:24:03;98618.63;;;12.80;nan
13593;BME280;6867;50.998;4.250;2024-02-23T11:26:30;98679.72;;;10.94;nan
13593;BME280;6867;50.998;4.250;2024-02-23T11:28:57;98776.00;;;11.08;nan
13593;BME280;6867;50.998;4.250;2024-02-23T11:31:29;98787.41;;;10.88;nan
13593;BME280;6867;50.998;4.250;2024-02-23T11:33:57;98840.81;;;12.27;nan
13593;BME280;6867;50.998;4.250;2024-02-23T11:36:27;98642.41;;;12.48;nan
13593;BME280;6867;50.998;4.250;2024-02-23T11:38:56;98705.59;;;11.11;nan
13593;BME280;6867;50.998;4.250;2024-02-23T11:41:24;98730.50;;;11.48;nan
13593;BME280;6867;50.998;4.250;2024-02-23T11:43:52;98772.13;;;11.41;nan
13593;BME280;6867;50.998;4.250;2024-02-23T11:46:19;98780.34;;;11.71;nan
13593;BME280;6867;50.998;4.250;2024-02-23T11:48:46;98738.72;;;11.21;nan
13593;BME280;6867;50.998;4.250;2024-02-23T11:51:20;98717.25;;;12.35;nan
13593;BME280;6867;50.998;4.250;2024-02-23T11:53:47;98778.63;;;12.23;nan
13593;BME280;6867;50.998;4.250;2024-02-23T11:56:14;98758.69;;;12.19;nan
13593;BME280;6867;50.998;4.250;2024-02-23T11:58:41;98730.66;;;11.89;nan
13593;BME280;6867;50.998;4.250;2024-02-23T12:01:08;98651.31;;;13.38;nan
13593;BME280;6867;50.998;4.250;2024-02-23T12:03:35;98645.63;;;12.55;nan
13593;BME280;6867;50.998;4.250;2024-02-23T12:06:04;98680.63;;;11.99;nan
13593;BME280;6867;50.998;4.250;2024-02-23T12:08:33;98778.09;;;13.23;nan
13593;BME280;6867;50.998;4.250;2024-02-23T12:11:03;98719.75;;;14.02;nan
13593;BME280;6867;50.998;4.250;2024-02-23T12:13:30;98625.13;;;13.83;nan
13593;BME280;6867;50.998;4.250;2024-02-23T12:15:57;98618.47;;;13.21;nan
13593;BME280;6867;50.998;4.250;2024-02-23T12:18:24;98702.16;;;12.75;nan
13593;BME280;6867;50.998;4.250;2024-02-23T12:20:52;98716.47;;;15.93;nan
13593;BME280;6867;50.998;4.250;2024-02-23T12:23:18;98531.59;;;12.85;nan
13593;BME280;6867;50.998;4.250;2024-02-23T12:25:54;98670.88;;;11.67;nan
13593;BME280;6867;50.998;4.250;2024-02-23T12:28:21;98723.97;;;10.44;nan
13593;BME280;6867;50.998;4.250;2024-02-23T12:30:58;98772.00;;;10.73;nan
13593;BME280;6867;50.998;4.250;2024-02-23T12:33:27;98786.75;;;11.08;nan
13593;BME280;6867;50.998;4.250;2024-02-23T12:35:54;98795.19;;;10.52;nan
13593;BME280;6867;50.998;4.250;2024-02-23T12:38:21;98797.06;;;10.84;nan
13593;BME280;6867;50.998;4.250;2024-02-23T12:40:48;98808.91;;;10.88;nan
13593;BME280;6867;50.998;4.250;2024-02-23T12:43:16;98737.97;;;12.19;nan
13593;BME280;6867;50.998;4.250;2024-02-23T12:45:43;98706.22;;;12.11;nan
13593;BME280;6867;50.998;4.250;2024-02-23T12:48:14;98747.38;;;11.29;nan
13593;BME280;6867;50.998;4.250;2024-02-23T12:50:41;98781.56;;;11.38;nan
13593;BME280;6867;50.998;4.250;2024-02-23T12:53:08;98759.25;;;12.26;nan
13593;BME280;6867;50.998;4.250;2024-02-23T12:55:35;98595.84;;;13.12;nan
13593;BME280;6867;50.998;4.250;2024-02-23T12:58:03;98693.59;;;12.17;nan
13593;BME280;6867;50.998;4.250;2024-02-23T13:00:31;98748.22;;;12.17;nan
13593;BME280;6867;50.998;4.250;2024-02-23T13:02:57;98732.31;;;12.01;nan
13593;BME280;6867;50.998;4.250;2024-02-23T13:05:24;98679.19;;;11.65;nan
13593;BME280;6867;50.998;4.250;2024-02-23T13:07:50;98638.09;;;12.52;nan
13593;BME280;6867;50.998;4.250;2024-02-23T13:10:17;98651.41;;;11.29;nan
13593;BME280;6867;50.998;4.250;2024-02-23T13:12:45;98697.06;;;11.19;nan
13593;BME280;6867;50.998;4.250;2024-02-23T13:15:12;98749.53;;;13.02;nan
13593;BME280;6867;50.998;4.250;2024-02-23T13:17:40;98620.03;;;12.57;nan
13593;BME280;6867;50.998;4.250;2024-02-23T13:20:07;98618.72;;;12.24;nan
13593;BME280;6867;50.998;4.250;2024-02-23T13:22:38;98700.09;;;13.37;nan
13593;BME280;6867;50.998;4.250;2024-02-23T13:25:04;98637.19;;;13.57;nan
13593;BME280;6867;50.998;4.250;2024-02-23T13:27:31;98554.31;;;14.26;nan
13593;BME280;6867;50.998;4.250;2024-02-23T13:29:58;98562.25;;;13.49;nan
13593;BME280;6867;50.998;4.250;2024-02-23T13:32:25;98601.81;;;13.04;nan
13593;BME280;6867;50.998;4.250;2024-02-23T13:34:53;98582.13;;;13.08;nan
13593;BME280;6867;50.998;4.250;2024-02-23T13:37:19;98576.31;;;12.81;nan
13593;BME280;6867;50.998;4.250;2024-02-23T13:39:46;98614.56;;;12.88;nan